createdAt,value
2023-02-13T00:02:26.836Z,25.60
2023-02-13T00:04:53.934Z,25.33
2023-02-13T00:07:21.076Z,24.02
2023-02-13T00:09:48.163Z,26.73
2023-02-13T00:12:15.320Z,23.38
2023-02-13T00:14:42.571Z,24.35
2023-02-13T00:17:09.740Z,23.40
2023-02-13T00:19:36.827Z,28.02
2023-02-13T00:22:03.955Z,24.90
2023-02-13T00:24:31.090Z,22.55
2023-02-13T00:26:58.191Z,20.35
2023-02-13T00:29:25.300Z,20.85
2023-02-13T00:31:52.495Z,26.48
2023-02-13T00:34:19.740Z,27.13
2023-02-13T00:36:46.847Z,23.48
2023-02-13T00:39:13.949Z,22.73
2023-02-13T00:41:41.034Z,19.73
2023-02-13T00:44:10.082Z,24.15
2023-02-13T00:46:38.572Z,25.67
2023-02-13T00:49:06.088Z,22.63
2023-02-13T00:51:34.817Z,23.08
2023-02-13T00:54:01.974Z,26.92
2023-02-13T00:56:29.342Z,24.88
2023-02-13T00:58:56.496Z,25.70
2023-02-13T01:01:25.521Z,22.17
2023-02-13T01:03:52.681Z,25.58
2023-02-13T01:06:21.698Z,26.88
2023-02-13T01:08:48.863Z,23.10
2023-02-13T01:11:16.234Z,22.05
2023-02-13T01:13:44.452Z,24.63
2023-02-13T01:16:11.722Z,26.40
2023-02-13T01:18:39.399Z,23.80
2023-02-13T01:21:07.456Z,25.02
2023-02-13T01:23:35.776Z,24.88
2023-02-13T01:26:07.149Z,24.95
2023-02-13T01:28:34.772Z,27.50
2023-02-13T01:31:02.678Z,24.45
2023-02-13T01:33:30.377Z,26.52
2023-02-13T01:35:58.216Z,24.77
2023-02-13T01:38:25.418Z,26.38
2023-02-13T01:40:54.833Z,22.40
2023-02-13T01:43:25.634Z,25.02
2023-02-13T01:45:55.785Z,26.77
2023-02-13T01:48:27.126Z,29.83
2023-02-13T01:50:59.767Z,22.67
2023-02-13T01:53:38.587Z,26.75
2023-02-13T01:56:15.764Z,23.20
2023-02-13T01:58:44.557Z,31.05
2023-02-13T02:01:11.866Z,27.67
2023-02-13T02:03:41.736Z,28.83
2023-02-13T02:06:13.983Z,24.00
2023-02-13T02:08:41.196Z,23.60
2023-02-13T02:11:12.401Z,28.30
2023-02-13T02:13:39.608Z,25.88
2023-02-13T02:16:10.237Z,25.00
2023-02-13T02:18:37.395Z,23.67
2023-02-13T02:21:04.643Z,23.58
2023-02-13T02:23:31.747Z,29.33
2023-02-13T02:26:01.523Z,25.00
2023-02-13T02:28:53.600Z,28.83
2023-02-13T02:31:39.894Z,24.50
2023-02-13T02:34:11.833Z,25.63
2023-02-13T02:36:59.611Z,22.67
2023-02-13T02:39:57.103Z,23.23
2023-02-13T02:42:36.088Z,21.63
2023-02-13T02:45:06.464Z,27.38
2023-02-13T02:47:56.789Z,26.33
2023-02-13T02:50:43.671Z,24.92
2023-02-13T02:53:32.417Z,29.65
2023-02-13T02:56:03.315Z,25.02
2023-02-13T02:58:57.767Z,23.38
2023-02-13T03:01:48.469Z,31.40
2023-02-13T03:04:37.759Z,23.75
2023-02-13T03:07:07.500Z,22.67
2023-02-13T03:09:56.762Z,23.58
2023-02-13T03:12:43.682Z,24.98
2023-02-13T03:15:10.864Z,23.42
2023-02-13T03:17:57.337Z,31.23
2023-02-13T03:20:58.891Z,27.08
2023-02-13T03:23:32.100Z,27.38
2023-02-13T03:26:26.088Z,27.63
2023-02-13T03:29:17.182Z,26.02
2023-02-13T03:32:01.437Z,27.13
2023-02-13T03:34:50.683Z,27.65
2023-02-13T03:37:38.033Z,27.75
2023-02-13T03:40:11.212Z,25.33
2023-02-13T03:42:54.900Z,30.90
2023-02-13T03:45:43.461Z,26.17
2023-02-13T03:48:31.236Z,27.35
2023-02-13T03:50:59.678Z,26.98
2023-02-13T03:53:29.948Z,22.95
2023-02-13T03:56:17.518Z,22.80
2023-02-13T03:59:05.649Z,22.80
2023-02-13T04:01:34.997Z,26.63
2023-02-13T04:04:06.614Z,26.38
2023-02-13T04:06:36.859Z,24.65
2023-02-13T04:09:29.818Z,25.73
2023-02-13T04:14:31.000Z,25.90
2023-02-13T04:17:03.391Z,25.92
2023-02-13T04:19:31.206Z,25.02
2023-02-13T04:22:00.012Z,23.98
2023-02-13T04:24:28.037Z,21.75
2023-02-13T04:26:56.851Z,23.88
2023-02-13T04:29:24.919Z,23.42
2023-02-13T04:31:52.594Z,28.90
2023-02-13T04:34:19.941Z,25.48
2023-02-13T04:36:47.240Z,27.05
2023-02-13T04:39:14.561Z,27.95
2023-02-13T04:41:41.743Z,26.88
2023-02-13T04:44:08.863Z,24.17
2023-02-13T04:46:36.232Z,22.95
2023-02-13T04:49:03.342Z,24.13
2023-02-13T04:51:30.550Z,20.15
2023-02-13T04:53:57.693Z,23.55
2023-02-13T04:56:24.771Z,26.92
2023-02-13T04:58:51.876Z,25.60
2023-02-13T05:01:19.235Z,22.75
2023-02-13T05:03:46.632Z,26.65
2023-02-13T05:06:13.922Z,21.27
2023-02-13T05:08:41.097Z,25.00
2023-02-13T05:11:08.300Z,20.27
2023-02-13T05:13:35.439Z,24.92
2023-02-13T05:16:02.658Z,25.20
2023-02-13T05:18:29.876Z,23.48
2023-02-13T05:21:15.642Z,24.13
2023-02-13T05:23:42.778Z,22.60
2023-02-13T05:26:09.993Z,24.00
2023-02-13T05:28:55.809Z,19.88
2023-02-13T05:31:23.048Z,24.42
2023-02-13T05:33:50.157Z,25.85
2023-02-13T05:36:17.334Z,24.70
2023-02-13T05:38:44.470Z,23.73
2023-02-13T05:41:13.582Z,26.48
2023-02-13T05:43:40.885Z,25.17
2023-02-13T05:46:09.316Z,28.20
2023-02-13T05:48:37.058Z,22.75
2023-02-13T05:51:04.301Z,21.83
2023-02-13T05:53:35.104Z,26.55
2023-02-13T05:56:02.619Z,27.48
2023-02-13T05:58:29.817Z,22.95
2023-02-13T06:00:58.637Z,23.20
2023-02-13T06:03:26.523Z,23.67
2023-02-13T06:05:57.214Z,26.88
2023-02-13T06:08:25.032Z,27.38
2023-02-13T06:10:52.120Z,27.08
2023-02-13T06:13:19.611Z,27.48
2023-02-13T06:15:46.886Z,27.83
2023-02-13T06:18:14.032Z,26.63
2023-02-13T06:20:41.233Z,28.17
2023-02-13T06:23:08.385Z,24.48
2023-02-13T06:25:36.358Z,24.58
2023-02-13T06:28:03.892Z,25.33
2023-02-13T06:30:31.515Z,28.30
2023-02-13T06:32:58.720Z,27.00
2023-02-13T06:35:26.187Z,28.33
2023-02-13T06:37:53.327Z,23.95
2023-02-13T06:40:20.604Z,21.77
2023-02-13T06:42:47.750Z,26.17
2023-02-13T06:45:14.912Z,26.50
2023-02-13T06:47:42.899Z,26.95
2023-02-13T06:50:10.531Z,27.02
2023-02-13T06:52:37.757Z,29.60
2023-02-13T06:55:05.225Z,27.17
2023-02-13T06:57:33.704Z,26.85
2023-02-13T07:00:04.924Z,24.35
2023-02-13T07:02:32.775Z,26.08
2023-02-13T07:05:00.066Z,26.48
2023-02-13T07:07:27.247Z,28.48
2023-02-13T07:09:54.317Z,28.40
2023-02-13T07:12:21.754Z,28.45
2023-02-13T07:14:48.906Z,28.10
2023-02-13T07:17:16.034Z,27.60
2023-02-13T07:19:43.184Z,28.27
2023-02-13T07:22:10.339Z,28.52
2023-02-13T07:24:38.552Z,27.40
2023-02-13T07:27:06.273Z,29.77
2023-02-13T07:29:33.410Z,31.27
2023-02-13T07:32:00.682Z,26.00
2023-02-13T07:34:27.857Z,28.20
2023-02-13T07:36:55.232Z,29.10
2023-02-13T07:39:22.402Z,26.65
2023-02-13T07:41:49.541Z,33.03
2023-02-13T07:44:16.923Z,31.35
2023-02-13T07:46:44.111Z,27.27
2023-02-13T07:49:11.325Z,30.10
2023-02-13T07:51:38.440Z,27.95
2023-02-13T07:54:05.577Z,27.80
2023-02-13T07:56:32.734Z,30.30
2023-02-13T07:58:59.880Z,28.38
2023-02-13T08:01:27.028Z,29.80
2023-02-13T08:03:54.435Z,27.25
2023-02-13T08:06:21.908Z,28.23
2023-02-13T08:08:49.005Z,27.85
2023-02-13T08:11:52.196Z,26.92
2023-02-13T08:16:46.383Z,30.98
2023-02-13T08:19:13.584Z,27.30
2023-02-13T08:21:43.539Z,27.67
2023-02-13T08:24:10.753Z,30.63
2023-02-13T08:26:38.015Z,28.60
2023-02-13T08:29:05.726Z,33.63
2023-02-13T08:31:33.225Z,29.10
2023-02-13T08:34:00.365Z,27.25
2023-02-13T08:36:27.654Z,29.92
2023-02-13T08:38:54.780Z,26.83
2023-02-13T08:41:22.178Z,31.20
2023-02-13T08:43:50.015Z,29.77
2023-02-13T08:46:17.721Z,30.13
2023-02-13T08:48:44.966Z,28.77
2023-02-13T08:51:13.066Z,30.33
2023-02-13T08:53:40.507Z,28.30
2023-02-13T08:56:07.882Z,30.45
2023-02-13T08:58:35.155Z,29.83
2023-02-13T09:01:05.434Z,32.70
2023-02-13T09:03:32.553Z,33.80
2023-02-13T09:06:00.684Z,34.00
2023-02-13T09:08:28.240Z,29.75
2023-02-13T09:11:01.163Z,32.95
2023-02-13T09:13:30.141Z,28.35
2023-02-13T09:16:05.478Z,28.13
2023-02-13T09:18:32.978Z,32.25
2023-02-13T09:21:04.269Z,29.05
2023-02-13T09:23:35.168Z,31.30
2023-02-13T09:26:03.016Z,30.70
2023-02-13T09:28:30.942Z,28.02
2023-02-13T09:30:58.372Z,29.52
2023-02-13T09:33:27.361Z,30.80
2023-02-13T09:35:54.749Z,29.58
2023-02-13T09:38:21.977Z,29.23
2023-02-13T09:40:52.922Z,31.95
2023-02-13T09:43:22.723Z,34.60
2023-02-13T09:45:51.564Z,30.90
2023-02-13T09:48:28.900Z,30.15
2023-02-13T09:50:56.402Z,31.65
2023-02-13T09:53:25.006Z,29.38
2023-02-13T09:56:01.487Z,32.13
2023-02-13T09:58:34.425Z,31.25
2023-02-13T10:01:03.781Z,31.92
2023-02-13T10:03:38.330Z,37.42
2023-02-13T10:06:08.601Z,31.10
2023-02-13T10:08:45.966Z,30.95
2023-02-13T10:11:32.162Z,31.77
2023-02-13T10:14:15.598Z,27.73
2023-02-13T10:16:42.705Z,28.17
2023-02-13T10:19:28.620Z,30.35
2023-02-13T10:21:58.997Z,31.27
2023-02-13T10:24:30.000Z,30.52
2023-02-13T10:26:57.543Z,29.50
2023-02-13T10:29:45.238Z,29.67
2023-02-13T10:32:14.804Z,30.85
2023-02-13T10:34:44.275Z,28.10
2023-02-13T10:37:16.331Z,37.28
2023-02-13T10:39:45.207Z,29.17
2023-02-13T10:42:24.387Z,29.98
2023-02-13T10:45:04.175Z,28.90
2023-02-13T10:47:45.558Z,29.00
2023-02-13T10:50:18.353Z,27.60
2023-02-13T10:53:03.639Z,27.80
2023-02-13T10:55:30.765Z,26.70
2023-02-13T10:58:12.885Z,26.77
2023-02-13T11:00:43.310Z,27.98
2023-02-13T11:03:19.018Z,28.60
2023-02-13T11:05:46.142Z,27.23
2023-02-13T11:08:17.010Z,27.20
2023-02-13T11:10:44.088Z,27.60
2023-02-13T11:13:19.036Z,28.15
2023-02-13T11:16:04.865Z,22.20
2023-02-13T11:18:34.340Z,25.10
2023-02-13T11:21:14.968Z,24.60
2023-02-13T11:23:44.457Z,24.15
2023-02-13T11:26:15.071Z,26.00
2023-02-13T11:28:55.549Z,26.52
2023-02-13T11:31:33.311Z,22.80
2023-02-13T11:34:18.337Z,25.05
2023-02-13T11:36:45.487Z,24.58
2023-02-13T11:39:20.468Z,23.38
2023-02-13T11:41:50.722Z,21.73
2023-02-13T11:44:20.688Z,22.60
2023-02-13T11:46:48.844Z,22.50
2023-02-13T11:49:19.608Z,20.95
2023-02-13T11:51:48.381Z,23.50
2023-02-13T11:54:38.469Z,17.55
2023-02-13T11:57:17.976Z,17.95
2023-02-13T11:59:46.224Z,18.88
2023-02-13T12:02:13.620Z,19.17
2023-02-13T12:04:41.203Z,17.00
2023-02-13T12:07:17.383Z,19.98
2023-02-13T12:09:45.925Z,17.75
2023-02-13T12:12:17.755Z,18.23
2023-02-13T12:14:45.888Z,19.55
2023-02-13T12:17:31.210Z,18.63
2023-02-13T12:19:59.895Z,19.00
2023-02-13T12:22:28.560Z,17.90
2023-02-13T12:25:14.292Z,19.63
2023-02-13T12:27:42.959Z,19.02
2023-02-13T12:30:13.070Z,20.05
2023-02-13T12:32:49.504Z,17.73
2023-02-13T12:35:30.074Z,21.13
2023-02-13T12:38:15.688Z,21.40
2023-02-13T12:40:54.023Z,21.10
2023-02-13T12:43:21.142Z,18.95
2023-02-13T12:46:11.730Z,21.73
2023-02-13T12:48:51.893Z,20.35
2023-02-13T12:51:24.991Z,21.55
2023-02-13T12:54:04.338Z,22.10
2023-02-13T12:56:31.891Z,22.77
2023-02-13T12:59:09.109Z,21.25
2023-02-13T13:01:44.628Z,22.40
2023-02-13T13:04:20.764Z,23.95
2023-02-13T13:07:00.357Z,22.83
2023-02-13T13:10:02.903Z,21.67
2023-02-13T13:12:42.278Z,20.25
2023-02-13T13:15:17.003Z,23.05
2023-02-13T13:17:56.094Z,21.05
2023-02-13T13:20:23.180Z,23.02
2023-02-13T13:22:52.503Z,22.17
2023-02-13T13:25:24.470Z,21.45
2023-02-13T13:27:54.310Z,19.40
2023-02-13T13:30:27.860Z,23.45
2023-02-13T13:33:08.438Z,22.77
2023-02-13T13:35:36.602Z,20.05
2023-02-13T13:38:15.111Z,19.42
2023-02-13T13:41:02.385Z,19.92
2023-02-13T13:44:01.692Z,23.50
2023-02-13T13:46:31.512Z,21.88
2023-02-13T13:49:07.955Z,21.13
2023-02-13T13:51:37.401Z,20.95
2023-02-13T13:54:07.323Z,20.58
2023-02-13T13:56:53.416Z,21.67
2023-02-13T13:59:40.648Z,21.30
2023-02-13T14:02:19.867Z,24.02
2023-02-13T14:05:05.511Z,19.85
2023-02-13T14:07:37.486Z,21.42
2023-02-13T14:10:07.614Z,20.83
2023-02-13T14:12:36.970Z,22.38
2023-02-13T14:15:04.478Z,21.27
2023-02-13T14:17:46.734Z,22.50
2023-02-13T14:20:22.064Z,23.05
2023-02-13T14:22:49.410Z,22.40
2023-02-13T14:25:22.989Z,24.65
2023-02-13T14:28:00.726Z,22.75
2023-02-13T14:30:30.462Z,25.85
2023-02-13T14:32:58.357Z,22.25
2023-02-13T14:35:28.369Z,23.88
2023-02-13T14:38:07.901Z,23.73
2023-02-13T14:40:48.110Z,27.35
2023-02-13T14:43:21.349Z,26.13
2023-02-13T14:45:52.276Z,22.80
2023-02-13T14:48:20.942Z,23.85
2023-02-13T14:50:52.067Z,24.73
2023-02-13T14:53:27.515Z,27.75
2023-02-13T14:55:57.911Z,28.25
2023-02-13T14:58:33.504Z,29.08
2023-02-13T15:01:05.932Z,29.98
2023-02-13T15:03:45.070Z,29.95
2023-02-13T15:06:20.526Z,29.65
2023-02-13T15:08:49.449Z,29.20
2023-02-13T15:11:35.865Z,31.02
2023-02-13T15:14:21.058Z,28.95
2023-02-13T15:16:53.445Z,27.73
2023-02-13T15:19:21.848Z,30.30
2023-02-13T15:21:53.519Z,27.63
2023-02-13T15:24:22.880Z,26.60
2023-02-13T15:26:51.480Z,24.88
2023-02-13T15:29:29.296Z,25.80
2023-02-13T15:31:59.405Z,23.00
2023-02-13T15:34:32.184Z,23.90
2023-02-13T15:36:59.381Z,23.52
2023-02-13T15:39:31.217Z,23.67
2023-02-13T15:42:00.322Z,27.13
2023-02-13T15:44:29.600Z,26.35
2023-02-13T15:47:01.448Z,21.55
2023-02-13T15:49:31.741Z,22.90
2023-02-13T15:52:03.860Z,20.77
2023-02-13T15:54:35.036Z,26.60
2023-02-13T15:57:04.753Z,24.17
2023-02-13T15:59:34.852Z,23.58
2023-02-13T16:02:02.854Z,24.27
2023-02-13T16:04:30.412Z,26.50
2023-02-13T16:06:58.828Z,23.38
2023-02-13T16:09:35.601Z,23.88
2023-02-13T16:12:21.610Z,26.33
2023-02-13T16:14:56.763Z,25.90
2023-02-13T16:17:29.170Z,24.45
2023-02-13T16:20:07.079Z,23.27
2023-02-13T16:22:44.988Z,22.80
2023-02-13T16:25:30.981Z,30.02
2023-02-13T16:27:59.545Z,21.90
2023-02-13T16:30:26.663Z,24.67
2023-02-13T16:33:09.217Z,22.27
2023-02-13T16:35:40.797Z,23.95
2023-02-13T16:38:27.139Z,24.30
2023-02-13T16:40:58.264Z,24.40
2023-02-13T16:43:35.930Z,22.98
2023-02-13T16:46:15.350Z,23.58
2023-02-13T16:48:43.784Z,24.08
2023-02-13T16:51:11.113Z,24.35
2023-02-13T16:53:38.487Z,21.08
2023-02-13T16:56:09.650Z,22.77
2023-02-13T16:58:36.988Z,20.13
2023-02-13T17:01:05.319Z,23.55
2023-02-13T17:03:32.903Z,22.83
2023-02-13T17:06:03.289Z,25.95
2023-02-13T17:08:31.921Z,29.55
2023-02-13T17:11:03.918Z,28.83
2023-02-13T17:13:31.383Z,27.10
2023-02-13T17:16:00.013Z,23.98
2023-02-13T17:18:27.578Z,22.63
2023-02-13T17:20:55.099Z,22.23
2023-02-13T17:23:24.213Z,26.23
2023-02-13T17:25:52.584Z,27.30
2023-02-13T17:28:24.298Z,25.15
2023-02-13T17:30:52.511Z,23.77
2023-02-13T17:33:24.376Z,21.35
2023-02-13T17:35:51.580Z,23.40
2023-02-13T17:38:18.704Z,22.92
2023-02-13T17:40:45.970Z,25.23
2023-02-13T17:43:13.695Z,23.00
2023-02-13T17:45:40.927Z,21.27
2023-02-13T17:48:08.074Z,23.33
2023-02-13T17:50:36.034Z,23.77
2023-02-13T17:53:04.739Z,24.77
2023-02-13T17:55:33.343Z,22.17
2023-02-13T17:58:00.850Z,24.38
2023-02-13T18:00:29.483Z,28.48
2023-02-13T18:02:56.881Z,24.92
2023-02-13T18:05:24.117Z,22.60
2023-02-13T18:07:51.235Z,24.80
2023-02-13T18:10:20.102Z,23.42
2023-02-13T18:12:47.943Z,24.63
2023-02-13T18:15:15.502Z,26.25
2023-02-13T18:17:42.671Z,24.02
2023-02-13T18:20:12.228Z,24.08
2023-02-13T18:22:39.434Z,23.52
2023-02-13T18:25:06.977Z,25.20
2023-02-13T18:27:34.076Z,25.38
2023-02-13T18:30:01.404Z,22.77
2023-02-13T18:32:28.842Z,24.27
2023-02-13T18:34:55.977Z,25.80
2023-02-13T18:37:23.102Z,23.70
2023-02-13T18:39:50.271Z,24.00
2023-02-13T18:42:18.673Z,26.27
2023-02-13T18:44:45.796Z,28.25
2023-02-13T18:47:12.983Z,27.45
2023-02-13T18:49:40.392Z,25.30
2023-02-13T18:52:07.486Z,31.35
2023-02-13T18:54:34.681Z,24.17
2023-02-13T18:57:01.774Z,26.50
2023-02-13T18:59:29.067Z,24.33
2023-02-13T19:01:56.148Z,25.50
2023-02-13T19:04:23.587Z,24.27
2023-02-13T19:06:50.787Z,25.60
2023-02-13T19:09:17.881Z,24.50
2023-02-13T19:11:45.038Z,22.38
2023-02-13T19:14:13.161Z,25.83
2023-02-13T19:16:40.461Z,26.52
2023-02-13T19:19:08.889Z,24.50
2023-02-13T19:21:37.529Z,22.25
2023-02-13T19:24:06.170Z,25.75
2023-02-13T19:26:33.250Z,25.58
2023-02-13T19:29:00.416Z,23.30
2023-02-13T19:31:28.537Z,23.60
2023-02-13T19:33:56.244Z,23.02
2023-02-13T19:36:24.598Z,24.15
2023-02-13T19:38:56.053Z,25.85
2023-02-13T19:41:23.471Z,24.40
2023-02-13T19:43:51.324Z,24.88
2023-02-13T19:46:20.151Z,25.08
2023-02-13T19:48:47.419Z,23.73
2023-02-13T19:51:15.410Z,26.63
2023-02-13T19:53:42.928Z,21.90
2023-02-13T19:56:10.414Z,22.33
2023-02-13T19:58:38.067Z,21.25
2023-02-13T20:01:16.237Z,24.98
2023-02-13T20:03:43.777Z,24.20
2023-02-13T20:06:12.463Z,26.65
2023-02-13T20:08:41.929Z,25.92
2023-02-13T20:11:10.622Z,24.92
2023-02-13T20:13:38.092Z,26.05
2023-02-13T20:16:09.423Z,24.65
2023-02-13T20:18:37.141Z,24.42
2023-02-13T20:21:07.719Z,25.15
2023-02-13T20:23:35.215Z,26.88
2023-02-13T20:26:06.047Z,26.05
2023-02-13T20:28:33.188Z,28.42
2023-02-13T20:31:00.975Z,29.20
2023-02-13T20:33:28.371Z,30.08
2023-02-13T20:35:55.936Z,24.85
2023-02-13T20:38:23.054Z,27.25
2023-02-13T20:40:50.202Z,26.52
2023-02-13T20:43:17.337Z,25.13
2023-02-13T20:45:44.529Z,24.13
2023-02-13T20:48:11.685Z,25.77
2023-02-13T20:50:38.868Z,24.50
2023-02-13T20:53:05.948Z,25.98
2023-02-13T20:55:33.101Z,30.00
2023-02-13T20:58:00.406Z,24.45
2023-02-13T21:00:27.574Z,21.85
2023-02-13T21:02:54.767Z,26.15
2023-02-13T21:05:21.944Z,22.17
2023-02-13T21:07:49.088Z,25.38
2023-02-13T21:10:16.276Z,24.80
2023-02-13T21:12:43.412Z,24.80
2023-02-13T21:15:10.607Z,28.25
2023-02-13T21:17:37.752Z,35.75
2023-02-13T21:20:05.724Z,30.15
2023-02-13T21:22:32.901Z,27.52
2023-02-13T21:25:00.086Z,25.52
2023-02-13T21:27:28.244Z,26.05
2023-02-13T21:29:55.656Z,24.65
2023-02-13T21:32:22.966Z,27.58
2023-02-13T21:34:50.111Z,30.00
2023-02-13T21:37:17.316Z,25.50
2023-02-13T21:39:44.444Z,26.85
2023-02-13T21:42:11.589Z,28.20
2023-02-13T21:44:38.677Z,25.10
2023-02-13T21:47:07.164Z,29.17
2023-02-13T21:49:35.756Z,27.60
2023-02-13T21:52:02.832Z,23.73
2023-02-13T21:54:29.992Z,22.90
2023-02-13T21:56:57.144Z,26.40
2023-02-13T21:59:24.317Z,26.70
2023-02-13T22:01:52.233Z,27.77
2023-02-13T22:04:19.590Z,25.80
2023-02-13T22:06:51.040Z,27.00
2023-02-13T22:09:19.249Z,26.25
2023-02-13T22:11:46.353Z,23.05
2023-02-13T22:14:17.667Z,27.17
2023-02-13T22:16:45.697Z,26.67
2023-02-13T22:19:13.968Z,26.15
2023-02-13T22:21:41.106Z,29.85
2023-02-13T22:24:08.758Z,27.58
2023-02-13T22:26:37.593Z,26.30
2023-02-13T22:29:08.952Z,28.98
2023-02-13T22:31:36.480Z,24.88
2023-02-13T22:34:05.282Z,29.85
2023-02-13T22:36:33.748Z,29.17
2023-02-13T22:39:00.811Z,27.48
2023-02-13T22:41:28.260Z,26.73
2023-02-13T22:43:55.540Z,30.15
2023-02-13T22:46:24.191Z,26.52
2023-02-13T22:48:54.650Z,26.88
2023-02-13T22:51:26.035Z,28.02
2023-02-13T22:53:54.539Z,25.65
2023-02-13T22:56:21.985Z,26.80
2023-02-13T22:58:49.100Z,27.80
2023-02-13T23:01:18.009Z,24.13
2023-02-13T23:03:45.561Z,22.75
2023-02-13T23:06:13.443Z,22.52
2023-02-13T23:08:40.973Z,24.02
2023-02-13T23:11:27.977Z,21.23
2023-02-13T23:13:55.340Z,24.48
2023-02-13T23:16:22.543Z,24.02
2023-02-13T23:18:53.115Z,23.27
2023-02-13T23:21:20.409Z,26.38
2023-02-13T23:23:47.961Z,24.65
2023-02-13T23:26:15.647Z,26.05
2023-02-13T23:28:42.777Z,23.48
2023-02-13T23:31:10.001Z,25.08
2023-02-13T23:33:37.209Z,24.85
2023-02-13T23:36:04.440Z,25.55
2023-02-13T23:38:31.530Z,26.38
2023-02-13T23:41:08.947Z,23.38
2023-02-13T23:43:36.077Z,15.70
2023-02-13T23:46:04.353Z,14.65
2023-02-13T23:48:31.786Z,13.20
2023-02-13T23:50:59.274Z,11.80
2023-02-13T23:53:26.913Z,12.98
2023-02-13T23:55:55.006Z,13.80
2023-02-13T23:58:22.229Z,14.07
